Michalis L — A8TZ8 — position and weather

sailwx.info

Track history (hours):
 
Tides and Currents Weather Stations Pressure Air Temp Water Temp Dewpoint Dewpoint Depression Visibility Wind Speed Wind Dir Waves Ship Positions

Michalis L

Last reported at 2016-Sep-23 19:33 UTC. Time now 2016-Sep-30 18:42 UTC.
Position N 28°48' W 015°37'.

Length 230 m; draft 7.7 m.

Type: Cargo ship. MMSI: 636014462.

Date/timePositionNaut miles runAvg speedWind from/ knotsBaromVisibWave heightAir tempDewpointWater temp
2016-Sep-23 19:33N 28°48' W 015°37'2311.7
2016-Sep-23 17:33N 28°29' W 015°23'1111.0
2016-Sep-23 16:33N 28°18' W 015°19'1111.4
2016-Sep-23 15:33N 28°07' W 015°23'2 0.8
2016-Sep-23 13:30N 28°06' W 015°24'0 0.0
2016-Sep-23 09:33N 28°06' W 015°24'0 0.0
2016-Sep-23 06:33N 28°06' W 015°24'0 0.0
2016-Sep-23 04:24N 28°06' W 015°24'0 0.0
2016-Sep-23 03:24N 28°06' W 015°24'0 0.0
2016-Sep-23 02:27N 28°06' W 015°24'3 3.2
2016-Sep-23 01:33N 28°07' W 015°21'9 9.3
2016-Sep-23 00:34N 28°07' W 015°10'1312.6
2016-Sep-22 23:33N 28°05' W 014°56'3712.3
2016-Sep-22 20:33N 27°33' W 015°16'  
2016-Sep-19 19:33N 27°42' W 015°17'1312.7
2016-Sep-19 18:33N 27°54' W 015°15'15 7.0
2016-Sep-19 16:28N 28°07' W 015°24'0 0.0
2016-Sep-19 14:31N 28°07' W 015°24'0 0.0
2016-Sep-19 13:31N 28°07' W 015°24'0 0.0
2016-Sep-19 12:31N 28°07' W 015°24'0 0.0
2016-Sep-19 11:22N 28°07' W 015°24'2 1.3
2016-Sep-19 09:33N 28°07' W 015°22'1 0.7
2016-Sep-19 07:33N 28°08' W 015°22'2 2.0
2016-Sep-19 06:33N 28°10' W 015°20'29 9.6
2016-Sep-19 03:33N 28°30' W 014°57'1212.1
2016-Sep-19 02:33N 28°39' W 014°47'2412.0
2016-Sep-19 00:34N 28°56' W 014°28'6011.2
2016-Sep-18 19:12N 29°39' W 013°40'56011.3
2016-Sep-16 17:33N 35°59' W 005°31'2010.1
2016-Sep-16 15:33N 36°04' W 005°07'  
Track history (hours):
 
Tides and Currents Weather Stations Pressure Air Temp Water Temp Dewpoint Dewpoint Depression Visibility Wind Speed Wind Dir Waves Ship Positions

Michalis L

Last reported at 2016-Sep-23 19:33 UTC. Time now 2016-Sep-30 18:42 UTC.
Position N 28°48' W 015°37'.

Length 230 m; draft 7.7 m.

Type: Cargo ship. MMSI: 636014462.

Date/timePositionNaut miles runAvg speedWind from/ knotsBaromVisibWave heightAir tempDewpointWater temp
2016-Sep-23 19:33N 28°48' W 015°37'2311.7
2016-Sep-23 17:33N 28°29' W 015°23'1111.0
2016-Sep-23 16:33N 28°18' W 015°19'1111.4
2016-Sep-23 15:33N 28°07' W 015°23'2 0.8
2016-Sep-23 13:30N 28°06' W 015°24'0 0.0
2016-Sep-23 09:33N 28°06' W 015°24'0 0.0
2016-Sep-23 06:33N 28°06' W 015°24'0 0.0
2016-Sep-23 04:24N 28°06' W 015°24'0 0.0
2016-Sep-23 03:24N 28°06' W 015°24'0 0.0
2016-Sep-23 02:27N 28°06' W 015°24'3 3.2
2016-Sep-23 01:33N 28°07' W 015°21'9 9.3
2016-Sep-23 00:34N 28°07' W 015°10'1312.6
2016-Sep-22 23:33N 28°05' W 014°56'3712.3
2016-Sep-22 20:33N 27°33' W 015°16'  
2016-Sep-19 19:33N 27°42' W 015°17'1312.7
2016-Sep-19 18:33N 27°54' W 015°15'15 7.0
2016-Sep-19 16:28N 28°07' W 015°24'0 0.0
2016-Sep-19 14:31N 28°07' W 015°24'0 0.0
2016-Sep-19 13:31N 28°07' W 015°24'0 0.0
2016-Sep-19 12:31N 28°07' W 015°24'0 0.0
2016-Sep-19 11:22N 28°07' W 015°24'2 1.3
2016-Sep-19 09:33N 28°07' W 015°22'1 0.7
2016-Sep-19 07:33N 28°08' W 015°22'2 2.0
2016-Sep-19 06:33N 28°10' W 015°20'29 9.6
2016-Sep-19 03:33N 28°30' W 014°57'1212.1
2016-Sep-19 02:33N 28°39' W 014°47'2412.0
2016-Sep-19 00:34N 28°56' W 014°28'6011.2
2016-Sep-18 19:12N 29°39' W 013°40'56011.3
2016-Sep-16 17:33N 35°59' W 005°31'2010.1
2016-Sep-16 15:33N 36°04' W 005°07'  

Dump ship's entire track history